FIN3AM LPPT-EFHK
Flight info
| Callsign | FIN3AM |
|---|---|
| Flight time | N/A |
| Altitude | 38000 |
| Route | IXIDA DCT TOSDI DCT ZMR DCT NUBLO DCT RONSI DCT DELOG/N0459F400 DCT DIDIG DCT USODA DCT ERCUT DCT DITAL DCT ELCOB DCT PODEM DCT BAZOS DCT BELDI DCT VEKIN DCT ADUTO/N0455F390 DCT VICOT DCT ABFAD DCT ALASA DCT VIBAR DCT ALAMI DCT OKEVU DCT EVADI Y370 DIVAM |
| Aircraft | A343/H-SDE2E3FGHIJ4J5M1RWXY/LB1D1 |
Departure
| Time | N/A |
|---|---|
| Airport | Lisbon Humberto Delgado Airport (LPPT) |
Arrival
| Time | 2026-05-07 17:22 |
|---|---|
| Airport | Helsinki Vantaa Airport (EFHK) |
| Time | Latitude | Longitude | Altitude | Speed | Heading |
|---|---|---|---|---|---|
| 2026-05-07 15:16 | 50.98078 | 3.68952 | 38072 ft | 475 kts | 23° |
| 2026-05-07 15:16 | 51.01421 | 3.71334 | 38067 ft | 475 kts | 23° |
| 2026-05-07 15:17 | 51.07450 | 3.75640 | 38067 ft | 475 kts | 23° |
| 2026-05-07 15:17 | 51.13476 | 3.79955 | 38064 ft | 475 kts | 23° |
| 2026-05-07 15:18 | 51.19498 | 3.84280 | 38067 ft | 475 kts | 23° |
| 2026-05-07 15:18 | 51.25481 | 3.88589 | 38067 ft | 475 kts | 23° |
| 2026-05-07 15:19 | 51.31495 | 3.92933 | 38064 ft | 474 kts | 23° |
| 2026-05-07 15:19 | 51.37509 | 3.97290 | 38057 ft | 474 kts | 23° |
| 2026-05-07 15:20 | 51.43522 | 4.01658 | 37709 ft | 474 kts | 23° |
| 2026-05-07 15:20 | 51.46454 | 4.04064 | 37436 ft | 475 kts | 31° |
| 2026-05-07 15:20 | 51.49143 | 4.07142 | 37167 ft | 476 kts | 40° |
| 2026-05-07 15:21 | 51.51536 | 4.10714 | 37058 ft | 477 kts | 44° |
| 2026-05-07 15:21 | 51.53879 | 4.14478 | 37051 ft | 477 kts | 45° |
| 2026-05-07 15:21 | 51.58453 | 4.22171 | 37054 ft | 475 kts | 46° |
| 2026-05-07 15:22 | 51.62985 | 4.29904 | 37056 ft | 475 kts | 46° |
| 2026-05-07 15:22 | 51.67522 | 4.37626 | 37057 ft | 475 kts | 46° |
| 2026-05-07 15:23 | 51.72035 | 4.45297 | 37067 ft | 475 kts | 46° |
| 2026-05-07 15:23 | 51.76575 | 4.53025 | 37069 ft | 474 kts | 46° |
| 2026-05-07 15:24 | 51.81105 | 4.60763 | 37070 ft | 474 kts | 46° |
| 2026-05-07 15:24 | 51.84869 | 4.67212 | 37073 ft | 474 kts | 46° |
| 2026-05-07 15:25 | 51.89390 | 4.74982 | 37071 ft | 474 kts | 46° |
| 2026-05-07 15:25 | 51.93905 | 4.82764 | 37066 ft | 474 kts | 46° |
| 2026-05-07 15:26 | 51.99141 | 4.91822 | 37066 ft | 473 kts | 47° |
| 2026-05-07 15:26 | 52.02878 | 4.98307 | 37068 ft | 473 kts | 47° |
| 2026-05-07 15:27 | 52.07367 | 5.06119 | 37072 ft | 473 kts | 47° |
| 2026-05-07 15:27 | 52.11850 | 5.13944 | 37072 ft | 473 kts | 47° |
| 2026-05-07 15:28 | 52.16328 | 5.21787 | 37072 ft | 473 kts | 47° |
| 2026-05-07 15:28 | 52.20795 | 5.29635 | 37071 ft | 472 kts | 47° |
| 2026-05-07 15:29 | 52.25175 | 5.37353 | 37073 ft | 471 kts | 47° |
| 2026-05-07 15:29 | 52.29665 | 5.45292 | 37067 ft | 471 kts | 47° |
| 2026-05-07 15:30 | 52.34110 | 5.53176 | 37076 ft | 472 kts | 47° |
| 2026-05-07 15:30 | 52.38550 | 5.61077 | 37075 ft | 472 kts | 47° |
| 2026-05-07 15:31 | 52.42989 | 5.69000 | 37066 ft | 472 kts | 47° |
| 2026-05-07 15:31 | 52.47421 | 5.76936 | 37069 ft | 472 kts | 47° |
| 2026-05-07 15:32 | 52.51822 | 5.84842 | 37063 ft | 472 kts | 47° |
| 2026-05-07 15:32 | 52.56246 | 5.92816 | 37069 ft | 472 kts | 47° |
| 2026-05-07 15:33 | 52.60664 | 6.00804 | 37051 ft | 472 kts | 48° |
| 2026-05-07 15:33 | 52.65072 | 6.08801 | 37060 ft | 470 kts | 48° |
| 2026-05-07 15:34 | 52.69455 | 6.16777 | 37063 ft | 469 kts | 48° |
| 2026-05-07 15:34 | 52.73802 | 6.24714 | 37061 ft | 469 kts | 48° |
| 2026-05-07 15:35 | 52.78174 | 6.32722 | 37056 ft | 469 kts | 48° |
| 2026-05-07 15:35 | 52.82539 | 6.40743 | 37064 ft | 469 kts | 48° |
| 2026-05-07 15:36 | 52.86900 | 6.48781 | 37062 ft | 469 kts | 48° |
| 2026-05-07 15:36 | 52.91226 | 6.56783 | 37070 ft | 469 kts | 48° |
| 2026-05-07 15:37 | 52.95573 | 6.64849 | 37072 ft | 469 kts | 48° |
| 2026-05-07 15:37 | 52.99918 | 6.72939 | 37070 ft | 469 kts | 48° |
| 2026-05-07 15:38 | 53.04252 | 6.81033 | 37073 ft | 469 kts | 49° |
| 2026-05-07 15:38 | 53.08555 | 6.89096 | 37074 ft | 469 kts | 49° |
| 2026-05-07 15:39 | 53.12876 | 6.97221 | 37071 ft | 469 kts | 49° |
| 2026-05-07 15:39 | 53.17190 | 7.05358 | 37071 ft | 469 kts | 49° |
| 2026-05-07 15:40 | 53.21502 | 7.13517 | 37071 ft | 469 kts | 49° |
| 2026-05-07 15:40 | 53.25780 | 7.21640 | 37070 ft | 469 kts | 49° |
| 2026-05-07 15:41 | 53.30084 | 7.29839 | 37078 ft | 469 kts | 49° |
| 2026-05-07 15:41 | 53.34383 | 7.38056 | 37074 ft | 469 kts | 49° |
| 2026-05-07 15:42 | 53.38674 | 7.46286 | 37075 ft | 469 kts | 49° |
| 2026-05-07 15:42 | 53.42934 | 7.54482 | 37073 ft | 470 kts | 49° |
| 2026-05-07 15:43 | 53.47217 | 7.62751 | 37076 ft | 469 kts | 49° |
| 2026-05-07 15:43 | 53.51492 | 7.71030 | 37079 ft | 469 kts | 49° |
| 2026-05-07 15:44 | 53.55749 | 7.79304 | 37065 ft | 467 kts | 49° |
| 2026-05-07 15:44 | 53.59999 | 7.87593 | 37076 ft | 468 kts | 49° |
| 2026-05-07 15:45 | 53.64223 | 7.95858 | 37076 ft | 469 kts | 49° |
| 2026-05-07 15:45 | 53.68476 | 8.04206 | 37077 ft | 469 kts | 49° |
| 2026-05-07 15:46 | 53.74836 | 8.16746 | 37080 ft | 467 kts | 50° |
| 2026-05-07 15:47 | 53.79047 | 8.25083 | 37081 ft | 466 kts | 50° |
| 2026-05-07 15:47 | 53.83215 | 8.33364 | 37083 ft | 465 kts | 50° |
| 2026-05-07 15:48 | 53.87406 | 8.41716 | 37077 ft | 466 kts | 50° |
| 2026-05-07 15:48 | 53.91605 | 8.50115 | 37078 ft | 468 kts | 50° |
| 2026-05-07 15:49 | 53.95813 | 8.58469 | 37079 ft | 468 kts | 46° |
| 2026-05-07 15:49 | 54.00468 | 8.66138 | 37076 ft | 465 kts | 43° |
| 2026-05-07 15:50 | 54.05207 | 8.73635 | 37081 ft | 465 kts | 43° |
| 2026-05-07 15:50 | 54.09959 | 8.81111 | 37085 ft | 465 kts | 43° |
| 2026-05-07 15:51 | 54.14673 | 8.88563 | 37092 ft | 465 kts | 43° |
| 2026-05-07 15:51 | 54.19405 | 8.96085 | 37083 ft | 464 kts | 43° |
| 2026-05-07 15:52 | 54.24117 | 9.03604 | 37093 ft | 463 kts | 43° |
| 2026-05-07 15:52 | 54.28818 | 9.11132 | 37088 ft | 464 kts | 43° |
| 2026-05-07 15:53 | 54.33500 | 9.18653 | 37093 ft | 465 kts | 43° |
| 2026-05-07 15:53 | 54.38215 | 9.26250 | 37092 ft | 465 kts | 43° |
| 2026-05-07 15:54 | 54.42919 | 9.33856 | 37093 ft | 464 kts | 43° |
| 2026-05-07 15:54 | 54.47609 | 9.41464 | 37102 ft | 463 kts | 43° |
| 2026-05-07 15:55 | 54.52261 | 9.49035 | 37103 ft | 463 kts | 43° |
| 2026-05-07 15:55 | 54.56938 | 9.56673 | 37101 ft | 463 kts | 43° |
| 2026-05-07 15:56 | 54.61614 | 9.64333 | 37102 ft | 464 kts | 44° |
| 2026-05-07 15:56 | 54.66282 | 9.72006 | 37104 ft | 463 kts | 43° |
| 2026-05-07 15:57 | 54.70905 | 9.79632 | 37106 ft | 463 kts | 44° |
| 2026-05-07 15:57 | 54.75562 | 9.87338 | 37108 ft | 463 kts | 44° |
| 2026-05-07 15:58 | 54.80197 | 9.95093 | 37108 ft | 463 kts | 46° |
| 2026-05-07 15:58 | 54.84464 | 10.03475 | 37123 ft | 463 kts | 49° |
| 2026-05-07 15:59 | 54.88637 | 10.11995 | 37122 ft | 463 kts | 50° |
| 2026-05-07 15:59 | 54.92753 | 10.20490 | 37120 ft | 462 kts | 50° |
| 2026-05-07 16:00 | 54.96893 | 10.29053 | 37117 ft | 462 kts | 50° |
| 2026-05-07 16:00 | 55.01032 | 10.37630 | 37116 ft | 463 kts | 50° |
| 2026-05-07 16:01 | 55.05169 | 10.46228 | 37116 ft | 463 kts | 50° |
| 2026-05-07 16:01 | 55.09267 | 10.54773 | 37113 ft | 462 kts | 50° |
| 2026-05-07 16:02 | 55.13387 | 10.63395 | 37115 ft | 462 kts | 50° |
| 2026-05-07 16:02 | 55.17500 | 10.72034 | 37115 ft | 462 kts | 50° |
| 2026-05-07 16:03 | 55.21610 | 10.80696 | 37112 ft | 462 kts | 50° |
| 2026-05-07 16:03 | 55.25710 | 10.89370 | 37113 ft | 462 kts | 50° |
| 2026-05-07 16:04 | 55.29779 | 10.98008 | 37115 ft | 462 kts | 50° |
| 2026-05-07 16:04 | 55.33872 | 11.06729 | 37113 ft | 463 kts | 50° |
| 2026-05-07 16:05 | 55.37964 | 11.15477 | 37106 ft | 464 kts | 50° |
| 2026-05-07 16:05 | 55.42059 | 11.24264 | 37114 ft | 464 kts | 50° |
| 2026-05-07 16:06 | 55.46121 | 11.33013 | 37112 ft | 464 kts | 50° |
| 2026-05-07 16:06 | 55.50204 | 11.41838 | 37110 ft | 464 kts | 50° |
| 2026-05-07 16:07 | 55.54279 | 11.50678 | 37110 ft | 464 kts | 50° |
| 2026-05-07 16:07 | 55.58323 | 11.59482 | 37116 ft | 464 kts | 50° |
| 2026-05-07 16:08 | 55.62385 | 11.68358 | 37119 ft | 464 kts | 51° |
| 2026-05-07 16:08 | 55.66444 | 11.77259 | 37122 ft | 464 kts | 51° |
| 2026-05-07 16:09 | 55.70495 | 11.86176 | 37118 ft | 465 kts | 51° |
| 2026-05-07 16:09 | 55.74552 | 11.95138 | 37124 ft | 467 kts | 50° |
| 2026-05-07 16:10 | 55.78593 | 12.04098 | 37124 ft | 468 kts | 51° |
| 2026-05-07 16:10 | 55.82653 | 12.13135 | 37121 ft | 468 kts | 51° |
| 2026-05-07 16:11 | 55.86711 | 12.22201 | 37115 ft | 468 kts | 51° |
| 2026-05-07 16:11 | 55.90761 | 12.31281 | 37113 ft | 468 kts | 51° |
| 2026-05-07 16:12 | 55.94807 | 12.40387 | 37116 ft | 468 kts | 51° |
| 2026-05-07 16:12 | 55.98814 | 12.49440 | 37112 ft | 467 kts | 51° |
| 2026-05-07 16:13 | 56.02836 | 12.58560 | 37106 ft | 467 kts | 51° |
| 2026-05-07 16:13 | 56.06865 | 12.67730 | 37111 ft | 470 kts | 51° |
| 2026-05-07 16:14 | 56.10899 | 12.76947 | 37114 ft | 470 kts | 51° |
| 2026-05-07 16:14 | 56.14899 | 12.86121 | 37113 ft | 470 kts | 51° |
| 2026-05-07 16:15 | 56.18919 | 12.95377 | 37105 ft | 470 kts | 51° |
| 2026-05-07 16:15 | 56.22938 | 13.04664 | 37105 ft | 471 kts | 51° |
| 2026-05-07 16:16 | 56.26951 | 13.13973 | 37107 ft | 471 kts | 51° |
| 2026-05-07 16:16 | 56.30928 | 13.23234 | 37099 ft | 471 kts | 51° |
| 2026-05-07 16:17 | 56.34924 | 13.32577 | 37097 ft | 471 kts | 52° |
| 2026-05-07 16:17 | 56.38918 | 13.41948 | 37106 ft | 472 kts | 51° |
| 2026-05-07 16:18 | 56.42913 | 13.51359 | 37088 ft | 472 kts | 52° |
| 2026-05-07 16:18 | 56.46901 | 13.60791 | 37090 ft | 472 kts | 52° |
| 2026-05-07 16:19 | 56.50858 | 13.70186 | 37093 ft | 472 kts | 52° |
| 2026-05-07 16:19 | 56.54832 | 13.79658 | 37077 ft | 472 kts | 52° |
| 2026-05-07 16:20 | 56.58801 | 13.89156 | 37081 ft | 472 kts | 52° |
| 2026-05-07 16:20 | 56.62762 | 13.98671 | 37077 ft | 473 kts | 52° |
| 2026-05-07 16:21 | 56.66693 | 14.08152 | 37066 ft | 473 kts | 52° |
| 2026-05-07 16:21 | 56.70647 | 14.17723 | 37068 ft | 474 kts | 52° |
| 2026-05-07 16:22 | 56.74600 | 14.27332 | 37068 ft | 474 kts | 52° |
| 2026-05-07 16:22 | 56.78549 | 14.36971 | 37059 ft | 474 kts | 52° |
| 2026-05-07 16:23 | 56.82488 | 14.46623 | 37063 ft | 474 kts | 52° |
| 2026-05-07 16:23 | 56.86400 | 14.56247 | 37048 ft | 476 kts | 52° |
| 2026-05-07 16:24 | 56.90337 | 14.65971 | 37045 ft | 476 kts | 52° |
| 2026-05-07 16:24 | 56.94269 | 14.75720 | 37046 ft | 476 kts | 52° |
| 2026-05-07 16:25 | 56.98192 | 14.85489 | 37063 ft | 476 kts | 52° |
| 2026-05-07 16:25 | 57.02088 | 14.95228 | 37065 ft | 477 kts | 53° |
| 2026-05-07 16:26 | 57.06012 | 15.05077 | 37067 ft | 479 kts | 52° |
| 2026-05-07 16:26 | 57.09941 | 15.14982 | 37067 ft | 480 kts | 52° |
| 2026-05-07 16:27 | 57.13864 | 15.24910 | 37066 ft | 480 kts | 53° |
| 2026-05-07 16:27 | 57.17752 | 15.34791 | 37073 ft | 480 kts | 53° |
| 2026-05-07 16:28 | 57.21660 | 15.44764 | 37075 ft | 480 kts | 53° |
| 2026-05-07 16:28 | 57.25560 | 15.54758 | 37082 ft | 480 kts | 52° |
| 2026-05-07 16:29 | 57.29465 | 15.64805 | 37078 ft | 482 kts | 53° |
| 2026-05-07 16:29 | 57.33343 | 15.74821 | 37089 ft | 482 kts | 53° |
| 2026-05-07 16:30 | 57.37240 | 15.84934 | 37092 ft | 482 kts | 53° |
| 2026-05-07 16:30 | 57.41128 | 15.95068 | 37094 ft | 482 kts | 53° |
| 2026-05-07 16:31 | 57.45009 | 16.05219 | 37104 ft | 482 kts | 53° |
| 2026-05-07 16:31 | 57.48888 | 16.15411 | 37105 ft | 484 kts | 53° |
| 2026-05-07 16:32 | 57.52746 | 16.25592 | 37102 ft | 485 kts | 53° |
| 2026-05-07 16:32 | 57.56621 | 16.35864 | 37110 ft | 485 kts | 53° |
| 2026-05-07 16:33 | 57.60457 | 16.46219 | 37110 ft | 485 kts | 54° |
| 2026-05-07 16:33 | 57.64167 | 16.56749 | 37113 ft | 486 kts | 56° |
| 2026-05-07 16:34 | 57.67837 | 16.67255 | 37116 ft | 487 kts | 56° |
| 2026-05-07 16:34 | 57.71547 | 16.77846 | 37117 ft | 486 kts | 55° |
| 2026-05-07 16:34 | 57.73397 | 16.83125 | 37312 ft | 485 kts | 56° |
| 2026-05-07 16:35 | 57.75247 | 16.88412 | 37571 ft | 485 kts | 56° |
| 2026-05-07 16:35 | 57.77093 | 16.93700 | 37846 ft | 485 kts | 56° |
| 2026-05-07 16:35 | 57.78935 | 16.98984 | 38082 ft | 485 kts | 56° |
| 2026-05-07 16:36 | 57.82653 | 17.09688 | 38118 ft | 493 kts | 56° |
| 2026-05-07 16:36 | 57.86350 | 17.20384 | 38140 ft | 491 kts | 56° |
| 2026-05-07 16:37 | 57.90051 | 17.31143 | 38116 ft | 490 kts | 56° |
| 2026-05-07 16:37 | 57.93753 | 17.41952 | 38114 ft | 492 kts | 56° |
| 2026-05-07 16:38 | 57.97451 | 17.52799 | 38112 ft | 493 kts | 56° |
| 2026-05-07 16:38 | 58.01143 | 17.63679 | 38120 ft | 493 kts | 56° |
| 2026-05-07 16:39 | 58.04803 | 17.74513 | 38114 ft | 493 kts | 56° |
| 2026-05-07 16:39 | 58.08479 | 17.85445 | 38121 ft | 493 kts | 56° |
| 2026-05-07 16:40 | 58.12153 | 17.96418 | 38118 ft | 494 kts | 57° |
| 2026-05-07 16:40 | 58.15821 | 18.07428 | 38121 ft | 494 kts | 57° |
| 2026-05-07 16:41 | 58.19454 | 18.18381 | 38124 ft | 494 kts | 57° |
| 2026-05-07 16:41 | 58.23105 | 18.29441 | 38123 ft | 494 kts | 57° |
| 2026-05-07 16:42 | 58.26743 | 18.40515 | 38123 ft | 494 kts | 57° |
| 2026-05-07 16:42 | 58.30378 | 18.51630 | 38127 ft | 495 kts | 57° |
| 2026-05-07 16:43 | 58.34007 | 18.62777 | 38128 ft | 496 kts | 57° |
| 2026-05-07 16:43 | 58.37603 | 18.73878 | 38132 ft | 496 kts | 57° |
| 2026-05-07 16:44 | 58.41210 | 18.85065 | 38131 ft | 496 kts | 57° |
| 2026-05-07 16:44 | 58.44810 | 18.96283 | 38131 ft | 496 kts | 57° |
| 2026-05-07 16:45 | 58.48402 | 19.07531 | 38127 ft | 497 kts | 57° |
| 2026-05-07 16:45 | 58.51999 | 19.18848 | 38123 ft | 498 kts | 57° |
| 2026-05-07 16:46 | 58.55567 | 19.30127 | 38122 ft | 499 kts | 57° |
| 2026-05-07 16:46 | 58.59149 | 19.41505 | 38123 ft | 499 kts | 57° |
| 2026-05-07 16:47 | 58.62721 | 19.52909 | 38126 ft | 499 kts | 58° |
| 2026-05-07 16:47 | 58.66284 | 19.64338 | 38127 ft | 499 kts | 58° |
| 2026-05-07 16:48 | 58.69818 | 19.75729 | 38129 ft | 500 kts | 58° |
| 2026-05-07 16:48 | 58.73374 | 19.87246 | 38128 ft | 501 kts | 58° |
| 2026-05-07 16:49 | 58.76925 | 19.98806 | 38125 ft | 502 kts | 58° |
| 2026-05-07 16:49 | 58.80473 | 20.10414 | 38122 ft | 503 kts | 58° |
| 2026-05-07 16:50 | 58.83988 | 20.21971 | 38127 ft | 503 kts | 58° |
| 2026-05-07 16:50 | 58.87520 | 20.33642 | 38140 ft | 504 kts | 58° |
| 2026-05-07 16:51 | 58.91051 | 20.45365 | 38126 ft | 505 kts | 58° |
| 2026-05-07 16:51 | 58.94576 | 20.57133 | 38127 ft | 505 kts | 58° |
| 2026-05-07 16:52 | 58.98092 | 20.68929 | 38124 ft | 505 kts | 58° |
| 2026-05-07 16:52 | 59.01589 | 20.80723 | 38120 ft | 499 kts | 59° |
| 2026-05-07 16:53 | 59.04970 | 20.92187 | 38121 ft | 490 kts | 59° |
| 2026-05-07 16:53 | 59.08459 | 21.03523 | 38123 ft | 488 kts | 56° |
| 2026-05-07 16:54 | 59.12040 | 21.14743 | 38124 ft | 488 kts | 56° |
| 2026-05-07 16:54 | 59.15602 | 21.26003 | 38118 ft | 488 kts | 57° |
| 2026-05-07 16:55 | 59.19108 | 21.37238 | 38116 ft | 488 kts | 57° |
| 2026-05-07 16:55 | 59.22621 | 21.48587 | 38085 ft | 489 kts | 57° |
| 2026-05-07 16:55 | 59.24375 | 21.54271 | 37774 ft | 489 kts | 57° |
| 2026-05-07 16:56 | 59.26127 | 21.59959 | 37437 ft | 488 kts | 57° |
| 2026-05-07 16:56 | 59.27875 | 21.65657 | 37000 ft | 489 kts | 57° |
| 2026-05-07 16:56 | 59.31369 | 21.77104 | 35931 ft | 490 kts | 57° |
| 2026-05-07 16:57 | 59.33110 | 21.82831 | 35403 ft | 490 kts | 57° |
| 2026-05-07 16:57 | 59.34830 | 21.88490 | 34889 ft | 489 kts | 57° |
| 2026-05-07 16:57 | 59.36569 | 21.94212 | 34369 ft | 489 kts | 56° |
| 2026-05-07 16:57 | 59.38306 | 21.99951 | 33827 ft | 488 kts | 56° |
| 2026-05-07 16:58 | 59.40035 | 22.05681 | 33199 ft | 488 kts | 56° |
| 2026-05-07 16:58 | 59.41761 | 22.11411 | 32621 ft | 488 kts | 57° |
| 2026-05-07 16:58 | 59.43489 | 22.17160 | 32048 ft | 490 kts | 57° |
| 2026-05-07 16:58 | 59.45222 | 22.22943 | 31533 ft | 492 kts | 56° |
| 2026-05-07 16:59 | 59.46963 | 22.28761 | 30980 ft | 495 kts | 56° |
| 2026-05-07 16:59 | 59.48704 | 22.34591 | 30437 ft | 509 kts | 56° |
| 2026-05-07 16:59 | 59.50508 | 22.40643 | 29868 ft | 514 kts | 57° |
| 2026-05-07 16:59 | 59.52311 | 22.46716 | 29224 ft | 513 kts | 57° |
| 2026-05-07 17:00 | 59.54099 | 22.52771 | 28604 ft | 509 kts | 57° |
| 2026-05-07 17:00 | 59.55867 | 22.58784 | 27997 ft | 505 kts | 57° |
| 2026-05-07 17:00 | 59.57618 | 22.64757 | 27408 ft | 501 kts | 57° |
| 2026-05-07 17:00 | 59.59350 | 22.70676 | 26822 ft | 496 kts | 57° |
| 2026-05-07 17:01 | 59.61067 | 22.76555 | 26225 ft | 492 kts | 57° |
| 2026-05-07 17:01 | 59.62769 | 22.82396 | 25674 ft | 488 kts | 57° |
| 2026-05-07 17:01 | 59.64432 | 22.88115 | 25138 ft | 484 kts | 57° |
| 2026-05-07 17:01 | 59.66102 | 22.93870 | 24603 ft | 480 kts | 57° |
| 2026-05-07 17:02 | 59.67756 | 22.99581 | 24067 ft | 477 kts | 57° |
| 2026-05-07 17:02 | 59.69396 | 23.05248 | 23531 ft | 473 kts | 57° |
| 2026-05-07 17:02 | 59.71020 | 23.10876 | 22913 ft | 469 kts | 57° |
| 2026-05-07 17:02 | 59.72630 | 23.16473 | 22305 ft | 465 kts | 58° |
| 2026-05-07 17:03 | 59.74222 | 23.22023 | 21719 ft | 462 kts | 58° |
| 2026-05-07 17:03 | 59.75802 | 23.27540 | 21131 ft | 458 kts | 58° |
| 2026-05-07 17:03 | 59.77362 | 23.33002 | 20558 ft | 451 kts | 58° |
| 2026-05-07 17:03 | 59.78895 | 23.38383 | 19997 ft | 445 kts | 58° |
| 2026-05-07 17:04 | 59.80383 | 23.43616 | 19463 ft | 437 kts | 58° |
| 2026-05-07 17:04 | 59.81866 | 23.48842 | 18962 ft | 432 kts | 58° |
| 2026-05-07 17:04 | 59.83336 | 23.54035 | 18401 ft | 430 kts | 58° |
| 2026-05-07 17:04 | 59.84798 | 23.59208 | 17813 ft | 427 kts | 58° |
| 2026-05-07 17:05 | 59.86242 | 23.64325 | 17214 ft | 422 kts | 58° |
| 2026-05-07 17:05 | 59.87748 | 23.69270 | 16624 ft | 414 kts | 53° |
| 2026-05-07 17:05 | 59.89328 | 23.74017 | 16032 ft | 409 kts | 53° |
| 2026-05-07 17:05 | 59.90902 | 23.78688 | 15469 ft | 403 kts | 53° |
| 2026-05-07 17:06 | 59.92462 | 23.83290 | 14904 ft | 398 kts | 53° |
| 2026-05-07 17:06 | 59.94005 | 23.87830 | 14354 ft | 393 kts | 53° |
| 2026-05-07 17:06 | 59.95530 | 23.92315 | 13822 ft | 388 kts | 53° |
| 2026-05-07 17:06 | 59.97016 | 23.96685 | 13237 ft | 383 kts | 53° |
| 2026-05-07 17:07 | 59.98504 | 24.01066 | 12686 ft | 379 kts | 53° |
| 2026-05-07 17:07 | 59.99973 | 24.05394 | 12120 ft | 374 kts | 53° |
| 2026-05-07 17:07 | 60.01420 | 24.09669 | 11581 ft | 369 kts | 53° |
| 2026-05-07 17:07 | 60.02849 | 24.13893 | 11057 ft | 364 kts | 54° |
| 2026-05-07 17:08 | 60.04256 | 24.18061 | 10525 ft | 359 kts | 54° |
| 2026-05-07 17:08 | 60.05638 | 24.22164 | 9996 ft | 353 kts | 54° |
| 2026-05-07 17:08 | 60.07001 | 24.26218 | 9428 ft | 349 kts | 54° |
| 2026-05-07 17:08 | 60.08344 | 24.30219 | 8854 ft | 344 kts | 54° |
| 2026-05-07 17:09 | 60.09651 | 24.34118 | 8310 ft | 338 kts | 54° |
| 2026-05-07 17:09 | 60.10940 | 24.37973 | 7861 ft | 327 kts | 54° |
| 2026-05-07 17:09 | 60.12181 | 24.41691 | 7521 ft | 315 kts | 54° |
| 2026-05-07 17:09 | 60.13384 | 24.45298 | 7220 ft | 307 kts | 54° |
| 2026-05-07 17:10 | 60.14557 | 24.48820 | 6912 ft | 300 kts | 54° |
| 2026-05-07 17:10 | 60.15701 | 24.52260 | 6597 ft | 292 kts | 54° |
| 2026-05-07 17:10 | 60.16808 | 24.55595 | 6286 ft | 285 kts | 54° |
| 2026-05-07 17:10 | 60.17892 | 24.58865 | 5953 ft | 278 kts | 54° |
| 2026-05-07 17:11 | 60.18953 | 24.62071 | 5646 ft | 273 kts | 54° |
| 2026-05-07 17:11 | 60.19991 | 24.65211 | 5331 ft | 268 kts | 54° |
| 2026-05-07 17:11 | 60.21005 | 24.68278 | 5056 ft | 264 kts | 54° |
| 2026-05-07 17:11 | 60.22017 | 24.71344 | 4984 ft | 264 kts | 54° |
| 2026-05-07 17:12 | 60.23036 | 24.74432 | 4985 ft | 265 kts | 53° |
| 2026-05-07 17:12 | 60.24057 | 24.77532 | 5004 ft | 266 kts | 54° |
| 2026-05-07 17:12 | 60.25076 | 24.80633 | 4987 ft | 266 kts | 53° |
| 2026-05-07 17:12 | 60.26093 | 24.83732 | 4985 ft | 265 kts | 54° |
| 2026-05-07 17:13 | 60.27108 | 24.86833 | 4990 ft | 265 kts | 54° |
| 2026-05-07 17:13 | 60.28120 | 24.89927 | 4988 ft | 264 kts | 54° |
| 2026-05-07 17:13 | 60.29133 | 24.93025 | 4989 ft | 264 kts | 54° |
| 2026-05-07 17:13 | 60.30142 | 24.96117 | 4990 ft | 264 kts | 54° |
| 2026-05-07 17:14 | 60.31138 | 24.99173 | 4989 ft | 264 kts | 54° |
| 2026-05-07 17:14 | 60.32148 | 25.02274 | 4990 ft | 264 kts | 54° |
| 2026-05-07 17:14 | 60.33158 | 25.05380 | 4905 ft | 265 kts | 55° |
| 2026-05-07 17:14 | 60.34271 | 25.08313 | 4647 ft | 262 kts | 42° |
| 2026-05-07 17:15 | 60.35807 | 25.10171 | 4380 ft | 258 kts | 15° |
| 2026-05-07 17:15 | 60.37569 | 25.10300 | 4110 ft | 255 kts | 345° |
| 2026-05-07 17:15 | 60.39214 | 25.08985 | 3863 ft | 255 kts | 333° |
| 2026-05-07 17:15 | 60.40781 | 25.07390 | 3602 ft | 256 kts | 332° |
| 2026-05-07 17:16 | 60.42367 | 25.05743 | 3350 ft | 256 kts | 332° |
| 2026-05-07 17:16 | 60.43952 | 25.04103 | 3081 ft | 254 kts | 332° |
| 2026-05-07 17:16 | 60.45511 | 25.02497 | 2829 ft | 248 kts | 331° |
| 2026-05-07 17:16 | 60.47021 | 25.00913 | 2545 ft | 240 kts | 329° |
| 2026-05-07 17:17 | 60.48225 | 24.98710 | 2267 ft | 231 kts | 300° |
| 2026-05-07 17:17 | 60.48539 | 24.95631 | 2028 ft | 224 kts | 261° |
| 2026-05-07 17:17 | 60.48026 | 24.92727 | 1980 ft | 216 kts | 243° |
| 2026-05-07 17:17 | 60.47345 | 24.90027 | 1970 ft | 214 kts | 242° |
| 2026-05-07 17:18 | 60.46643 | 24.87368 | 1989 ft | 214 kts | 239° |
| 2026-05-07 17:18 | 60.45604 | 24.85384 | 1984 ft | 208 kts | 202° |
| 2026-05-07 17:18 | 60.44218 | 24.85159 | 1986 ft | 196 kts | 177° |
| 2026-05-07 17:18 | 60.42986 | 24.86036 | 2007 ft | 185 kts | 148° |
| 2026-05-07 17:19 | 60.41928 | 24.87389 | 1989 ft | 172 kts | 156° |
| 2026-05-07 17:19 | 60.40910 | 24.88355 | 1960 ft | 156 kts | 158° |
| 2026-05-07 17:19 | 60.39942 | 24.89342 | 1780 ft | 155 kts | 156° |
| 2026-05-07 17:19 | 60.38993 | 24.90335 | 1549 ft | 153 kts | 156° |
| 2026-05-07 17:20 | 60.38044 | 24.91308 | 1325 ft | 153 kts | 156° |
| 2026-05-07 17:20 | 60.37098 | 24.92276 | 1104 ft | 152 kts | 157° |
| 2026-05-07 17:20 | 60.36175 | 24.93206 | 878 ft | 150 kts | 156° |
| 2026-05-07 17:20 | 60.35259 | 24.94168 | 662 ft | 147 kts | 155° |
| 2026-05-07 17:21 | 60.34352 | 24.95112 | 484 ft | 147 kts | 156° |
| 2026-05-07 17:21 | 60.33443 | 24.96049 | 292 ft | 146 kts | 156° |
| 2026-05-07 17:21 | 60.32550 | 24.96942 | 178 ft | 136 kts | 155° |
| 2026-05-07 17:21 | 60.31861 | 24.97646 | 170 ft | 85 kts | 153° |
| 2026-05-07 17:22 | 60.31499 | 24.98017 | 169 ft | 37 kts | 153° |
| 2026-05-07 17:22 | 60.31295 | 24.98224 | 172 ft | 30 kts | 153° |
| 2026-05-07 17:22 | 60.31124 | 24.98400 | 172 ft | 22 kts | 153° |
| 2026-05-07 17:22 | 60.31021 | 24.98428 | 170 ft | 15 kts | 208° |
| 2026-05-07 17:23 | 60.30972 | 24.98306 | 171 ft | 9 kts | 243° |
| 2026-05-07 17:23 | 60.30985 | 24.98208 | 171 ft | 8 kts | 316° |
| 2026-05-07 17:23 | 60.31039 | 24.98149 | 171 ft | 10 kts | 333° |
| 2026-05-07 17:23 | 60.31108 | 24.98080 | 171 ft | 12 kts | 333° |
| 2026-05-07 17:24 | 60.31189 | 24.97997 | 171 ft | 13 kts | 333° |
| 2026-05-07 17:24 | 60.31274 | 24.97910 | 171 ft | 15 kts | 333° |
| 2026-05-07 17:24 | 60.31370 | 24.97812 | 171 ft | 14 kts | 333° |
| 2026-05-07 17:24 | 60.31462 | 24.97718 | 170 ft | 16 kts | 332° |
| 2026-05-07 17:25 | 60.31547 | 24.97629 | 170 ft | 11 kts | 333° |
| 2026-05-07 17:25 | 60.31624 | 24.97550 | 170 ft | 13 kts | 333° |
| 2026-05-07 17:25 | 60.31713 | 24.97458 | 170 ft | 15 kts | 333° |
| 2026-05-07 17:25 | 60.31815 | 24.97355 | 171 ft | 17 kts | 334° |
| 2026-05-07 17:26 | 60.31911 | 24.97255 | 170 ft | 16 kts | 333° |
| 2026-05-07 17:26 | 60.32010 | 24.97153 | 170 ft | 17 kts | 333° |
| 2026-05-07 17:26 | 60.32098 | 24.97062 | 170 ft | 13 kts | 333° |
| 2026-05-07 17:26 | 60.32182 | 24.96976 | 170 ft | 14 kts | 333° |
| 2026-05-07 17:27 | 60.32253 | 24.96903 | 170 ft | 9 kts | 333° |
| 2026-05-07 17:27 | 60.32301 | 24.96835 | 170 ft | 6 kts | 296° |
| 2026-05-07 17:27 | 60.32288 | 24.96752 | 170 ft | 8 kts | 235° |
| 2026-05-07 17:27 | 60.32235 | 24.96632 | 170 ft | 14 kts | 227° |
| 2026-05-07 17:28 | 60.32166 | 24.96482 | 170 ft | 15 kts | 226° |
| 2026-05-07 17:28 | 60.32095 | 24.96324 | 170 ft | 15 kts | 227° |
| 2026-05-07 17:28 | 60.32020 | 24.96159 | 170 ft | 17 kts | 227° |
| 2026-05-07 17:28 | 60.31941 | 24.95986 | 170 ft | 17 kts | 227° |
| 2026-05-07 17:29 | 60.31865 | 24.95819 | 170 ft | 15 kts | 228° |
| 2026-05-07 17:29 | 60.31798 | 24.95672 | 170 ft | 14 kts | 227° |
| 2026-05-07 17:29 | 60.31745 | 24.95554 | 170 ft | 10 kts | 227° |
| 2026-05-07 17:29 | 60.31693 | 24.95441 | 170 ft | 12 kts | 227° |
| 2026-05-07 17:30 | 60.31633 | 24.95310 | 170 ft | 13 kts | 227° |
| 2026-05-07 17:30 | 60.31568 | 24.95166 | 170 ft | 15 kts | 227° |
| 2026-05-07 17:30 | 60.31502 | 24.95022 | 170 ft | 11 kts | 227° |
| 2026-05-07 17:30 | 60.31443 | 24.94990 | 170 ft | 9 kts | 158° |
| 2026-05-07 17:31 | 60.31400 | 24.95078 | 170 ft | 10 kts | 131° |
| 2026-05-07 17:31 | 60.31346 | 24.95181 | 170 ft | 11 kts | 137° |
| 2026-05-07 17:31 | 60.31283 | 24.95297 | 170 ft | 13 kts | 137° |
| 2026-05-07 17:31 | 60.31227 | 24.95400 | 170 ft | 9 kts | 137° |
| 2026-05-07 17:32 | 60.31181 | 24.95485 | 170 ft | 8 kts | 137° |
| 2026-05-07 17:32 | 60.31163 | 24.95585 | 170 ft | 8 kts | 79° |
| 2026-05-07 17:32 | 60.31201 | 24.95684 | 170 ft | 10 kts | 45° |
| 2026-05-07 17:32 | 60.31229 | 24.95751 | 170 ft | 7 kts | 61° |
| 2026-05-07 17:33 | 60.31223 | 24.95873 | 170 ft | 5 kts | 103° |
| 2026-05-07 17:33 | 60.31212 | 24.95948 | 170 ft | 6 kts | 116° |
| 2026-05-07 17:33 | 60.31184 | 24.96006 | 171 ft | 5 kts | 138° |
| 2026-05-07 17:33 | 60.31165 | 24.96041 | 171 ft | 2 kts | 138° |
| 2026-05-07 17:34 | 60.31158 | 24.96054 | 171 ft | 0 kts | 138° |